Time;durP1;ratioP1;P1;durP2;ratioP2;P2;SDS_P1;SDS_P2;PMS_P1;PMS_P2;Temp;Humidity;BMP_temperature;BMP_pressure;BME280_temperature;BME280_humidity;BME280_pressure;Samples;Min_cycle;Max_cycle;Signal;HPM_P1;HPM_P2
2022/06/26 00:00:44;;;;;;;5.9;9.7;;;;;;;18.2;100;98360;;;;
2022/06/26 00:10:46;;;;;;;5.8;8.9;;;;;;;17.9;100;98360;;;;
2022/06/26 00:20:44;;;;;;;5.8;8.9;;;;;;;17.8;100;98360;;;;
2022/06/26 00:31:45;;;;;;;5.9;8;;;;;;;17.5;100;98370;;;;
2022/06/26 00:42:44;;;;;;;5.9;8;;;;;;;17.4;100;98370;;;;
2022/06/26 00:52:44;;;;;;;5.9;8;;;;;;;17.1;100;98380;;;;
2022/06/26 01:02:44;;;;;;;6.5;9.8;;;;;;;17;100;98370;;;;
2022/06/26 01:12:44;;;;;;;6.5;9.8;;;;;;;16.9;100;98380;;;;
2022/06/26 01:23:44;;;;;;;6.5;9.8;;;;;;;16.7;100;98370;;;;
2022/06/26 01:33:44;;;;;;;7;11.2;;;;;;;16.5;100;98380;;;;
2022/06/26 01:43:44;;;;;;;7;11.2;;;;;;;16.5;100;98380;;;;
2022/06/26 01:54:44;;;;;;;7;11.2;;;;;;;16.2;100;98380;;;;
2022/06/26 02:05:44;;;;;;;7;9.5;;;;;;;16;100;98390;;;;
2022/06/26 02:16:44;;;;;;;7;9.5;;;;;;;15.9;100;98400;;;;
2022/06/26 02:27:45;;;;;;;7;9.5;;;;;;;15.8;100;98410;;;;
2022/06/26 02:37:44;;;;;;;7.6;10.2;;;;;;;15.7;100;98410;;;;
2022/06/26 02:48:44;;;;;;;7.6;10.2;;;;;;;15.6;100;98430;;;;
2022/06/26 02:59:44;;;;;;;7.6;10.2;;;;;;;15.7;100;98430;;;;
2022/06/26 03:09:44;;;;;;;7.2;11.5;;;;;;;15.9;100;98440;;;;
2022/06/26 03:19:44;;;;;;;7.2;11.5;;;;;;;15.9;100;98440;;;;
2022/06/26 03:30:44;;;;;;;7.2;11.5;;;;;;;16.1;100;98450;;;;
2022/06/26 03:40:44;;;;;;;7.5;10.6;;;;;;;16.3;100;98460;;;;
2022/06/26 03:50:44;;;;;;;7.5;10.6;;;;;;;16.7;100;98460;;;;
2022/06/26 04:01:44;;;;;;;7.9;11;;;;;;;17.1;100;98470;;;;
2022/06/26 04:11:44;;;;;;;7.9;11;;;;;;;17.4;100;98470;;;;
2022/06/26 04:21:44;;;;;;;7.9;11;;;;;;;17.6;100;98480;;;;
2022/06/26 04:31:45;;;;;;;7.9;11.2;;;;;;;17.8;100;98480;;;;
2022/06/26 04:42:44;;;;;;;7.9;11.2;;;;;;;18.4;100;98490;;;;
2022/06/26 04:52:44;;;;;;;7.9;11.2;;;;;;;18.7;100;98490;;;;
2022/06/26 05:03:45;;;;;;;7.4;9.9;;;;;;;19.2;100;98490;;;;
2022/06/26 05:14:44;;;;;;;7.4;9.9;;;;;;;19.6;100;98500;;;;
2022/06/26 05:24:45;;;;;;;7.4;9.9;;;;;;;20.1;100;98510;;;;
2022/06/26 05:34:45;;;;;;;7.3;9.5;;;;;;;20.5;100;98520;;;;
2022/06/26 05:44:44;;;;;;;7.3;9.5;;;;;;;20.8;100;98530;;;;
2022/06/26 05:55:44;;;;;;;7.3;9.5;;;;;;;21.1;100;98540;;;;
2022/06/26 06:06:44;;;;;;;5.9;8.2;;;;;;;21.5;100;98550;;;;
2022/06/26 06:16:45;;;;;;;5.9;8.2;;;;;;;21.9;100;98550;;;;
2022/06/26 06:27:44;;;;;;;5.9;8.2;;;;;;;22;100;98560;;;;
2022/06/26 06:37:44;;;;;;;5.4;8.6;;;;;;;22.5;100;98570;;;;
2022/06/26 06:47:44;;;;;;;5.4;8.6;;;;;;;22.9;100;98570;;;;
2022/06/26 06:57:44;;;;;;;5.4;8.6;;;;;;;23;100;98580;;;;
2022/06/26 07:08:44;;;;;;;6.2;9.5;;;;;;;23.4;100;98580;;;;
2022/06/26 07:18:45;;;;;;;6.2;9.5;;;;;;;23.8;100;98580;;;;
2022/06/26 07:29:44;;;;;;;6.2;9.5;;;;;;;24;100;98580;;;;
2022/06/26 07:39:44;;;;;;;6;9.7;;;;;;;24.3;100;98590;;;;
2022/06/26 07:49:44;;;;;;;6;9.7;;;;;;;24.6;100;98580;;;;
2022/06/26 08:00:44;;;;;;;6;9.7;;;;;;;24.7;100;98580;;;;
2022/06/26 08:10:45;;;;;;;5.6;7.7;;;;;;;25.4;100;98580;;;;
2022/06/26 08:22:16;;;;;;;5.6;7.7;;;;;;;25.5;100;98590;;;;
2022/06/26 08:32:45;;;;;;;4.7;9.4;;;;;;;26;96.6;98580;;;;
2022/06/26 08:43:45;;;;;;;4.7;9.4;;;;;;;26.4;94.4;98590;;;;
2022/06/26 08:53:45;;;;;;;4.7;9.4;;;;;;;26.6;89.1;98590;;;;
2022/06/26 09:03:45;;;;;;;3.4;6.3;;;;;;;26.7;87.5;98580;;;;
2022/06/26 09:14:44;;;;;;;3.4;6.3;;;;;;;27.1;86.2;98580;;;;
2022/06/26 09:25:45;;;;;;;3.4;6.3;;;;;;;27.3;83;98580;;;;
2022/06/26 09:36:44;;;;;;;3.4;5.7;;;;;;;27.5;83.4;98590;;;;
2022/06/26 09:46:44;;;;;;;3.4;5.7;;;;;;;27.9;72.8;98590;;;;
2022/06/26 09:56:45;;;;;;;3.4;5.7;;;;;;;27.8;68.4;98590;;;;
2022/06/26 10:06:45;;;;;;;2.8;5;;;;;;;27.7;68.6;98590;;;;
2022/06/26 10:17:45;;;;;;;2.8;5;;;;;;;28.1;63.2;98590;;;;
2022/06/26 10:28:44;;;;;;;2.8;5;;;;;;;27.9;61.6;98580;;;;
2022/06/26 10:38:44;;;;;;;3.1;7.7;;;;;;;28.3;62.4;98580;;;;
2022/06/26 10:48:44;;;;;;;3.1;7.7;;;;;;;28.5;67.6;98570;;;;
2022/06/26 10:58:45;;;;;;;3.1;7.7;;;;;;;28.5;66;98570;;;;
2022/06/26 11:08:45;;;;;;;3.4;6.8;;;;;;;28.7;62.9;98560;;;;
2022/06/26 11:20:46;;;;;;;3.4;6.8;;;;;;;28.7;61.3;98570;;;;
2022/06/26 11:30:45;;;;;;;3.4;6.8;;;;;;;29.2;60.3;98550;;;;
2022/06/26 11:40:45;;;;;;;2.6;5.3;;;;;;;29.1;61.7;98560;;;;
2022/06/26 11:51:45;;;;;;;2.6;5.3;;;;;;;29.1;56.5;98560;;;;
2022/06/26 12:02:44;;;;;;;3;6;;;;;;;29.4;55.3;98560;;;;
2022/06/26 12:13:44;;;;;;;3;6;;;;;;;29.9;57.2;98550;;;;
2022/06/26 12:23:45;;;;;;;3;6;;;;;;;29.8;57.6;98550;;;;
2022/06/26 12:33:45;;;;;;;2.7;5.9;;;;;;;29.9;55.3;98550;;;;
2022/06/26 12:44:44;;;;;;;2.7;5.9;;;;;;;30.1;54.7;98540;;;;
2022/06/26 12:54:45;;;;;;;2.7;5.9;;;;;;;30.3;54.6;98530;;;;
2022/06/26 13:05:45;;;;;;;2.5;4.6;;;;;;;30.6;52.5;98520;;;;
2022/06/26 13:16:45;;;;;;;2.5;4.6;;;;;;;30.6;52.7;98520;;;;
2022/06/26 13:26:47;;;;;;;2.5;4.6;;;;;;;30.9;54.5;98520;;;;
2022/06/26 13:36:45;;;;;;;2.6;5.3;;;;;;;30.8;51.5;98520;;;;
2022/06/26 13:47:45;;;;;;;2.6;5.3;;;;;;;30.9;49.6;98530;;;;
2022/06/26 13:58:45;;;;;;;2.6;5.3;;;;;;;31.3;50.8;98520;;;;
2022/06/26 14:08:45;;;;;;;2.9;6.5;;;;;;;31.6;49.2;98520;;;;
2022/06/26 14:18:45;;;;;;;2.9;6.5;;;;;;;31.7;46.3;98530;;;;
2022/06/26 14:29:46;;;;;;;2.9;6.5;;;;;;;31.9;48.8;98520;;;;
2022/06/26 14:39:45;;;;;;;2.9;6.5;;;;;;;32.3;50.7;98520;;;;
2022/06/26 14:50:45;;;;;;;2.9;6.5;;;;;;;32.3;48.4;98510;;;;
2022/06/26 15:01:45;;;;;;;2.9;6.5;;;;;;;33.1;48.9;98520;;;;
2022/06/26 15:11:45;;;;;;;3;5.4;;;;;;;35.1;43.8;98530;;;;
2022/06/26 15:21:45;;;;;;;3;5.4;;;;;;;37.4;38.1;98530;;;;
2022/06/26 15:31:45;;;;;;;3;5.4;;;;;;;38.7;37.1;98530;;;;
2022/06/26 15:42:45;;;;;;;2.7;7.1;;;;;;;38.7;36.5;98530;;;;
2022/06/26 15:53:46;;;;;;;2.7;7.1;;;;;;;39.3;36.5;98530;;;;
2022/06/26 16:03:45;;;;;;;2.5;5.4;;;;;;;38.7;37;98530;;;;
2022/06/26 16:13:45;;;;;;;2.5;5.4;;;;;;;39.3;37;98520;;;;
2022/06/26 16:34:45;;;;;;;2.6;6.3;;;;;;;39.3;39.3;98530;;;;
2022/06/26 16:44:45;;;;;;;2.6;6.3;;;;;;;38.9;39.3;98520;;;;
2022/06/26 16:55:45;;;;;;;2.6;6.3;;;;;;;37.8;40.1;98520;;;;
2022/06/26 17:05:45;;;;;;;2.9;5.4;;;;;;;36.6;43.2;98510;;;;
2022/06/26 17:16:45;;;;;;;2.9;5.4;;;;;;;33.2;48.5;98500;;;;
2022/06/26 17:26:45;;;;;;;2.9;5.4;;;;;;;32;51.6;98500;;;;
2022/06/26 17:36:45;;;;;;;2.3;4.8;;;;;;;33.2;50.2;98510;;;;
2022/06/26 17:47:46;;;;;;;2.3;4.8;;;;;;;33.9;48.5;98510;;;;
2022/06/26 17:58:45;;;;;;;2.3;4.8;;;;;;;33.5;48;98510;;;;
2022/06/26 18:09:45;;;;;;;2.4;6;;;;;;;31.4;53.9;98510;;;;
2022/06/26 18:19:45;;;;;;;2.4;6;;;;;;;29.4;59.6;98520;;;;
2022/06/26 18:30:45;;;;;;;2.4;6;;;;;;;28.1;64.1;98520;;;;
2022/06/26 18:40:45;;;;;;;3;5.9;;;;;;;27.4;66.5;98530;;;;
2022/06/26 18:51:45;;;;;;;3;5.9;;;;;;;26.5;70.6;98540;;;;
2022/06/26 19:01:45;;;;;;;3;5.9;;;;;;;25.9;72.9;98550;;;;
2022/06/26 19:22:45;;;;;;;3.1;5.6;;;;;;;24.8;78.9;98570;;;;
2022/06/26 19:32:45;;;;;;;3.1;5.6;;;;;;;24.4;80.9;98580;;;;
2022/06/26 19:42:46;;;;;;;3.5;7.2;;;;;;;24.1;82.3;98590;;;;
2022/06/26 19:52:45;;;;;;;3.5;7.2;;;;;;;23.8;82.6;98600;;;;
2022/06/26 20:02:45;;;;;;;3.5;7.2;;;;;;;23.6;83.3;98600;;;;
2022/06/26 20:12:45;;;;;;;3;6.2;;;;;;;23.4;84.1;98610;;;;
2022/06/26 20:23:45;;;;;;;3;6.2;;;;;;;23.2;84.9;98610;;;;
2022/06/26 20:33:45;;;;;;;3;5.2;;;;;;;23;85.5;98610;;;;
2022/06/26 20:44:45;;;;;;;3;5.2;;;;;;;22.8;85.6;98610;;;;
2022/06/26 20:54:46;;;;;;;3;5.2;;;;;;;22.7;86.4;98610;;;;
2022/06/26 21:05:46;;;;;;;3.1;6.3;;;;;;;22.6;87.2;98610;;;;
2022/06/26 21:15:45;;;;;;;3.1;6.3;;;;;;;22.4;88.2;98620;;;;
2022/06/26 21:26:45;;;;;;;3.1;6.3;;;;;;;22.1;88.9;98620;;;;
2022/06/26 21:37:46;;;;;;;2.7;7.5;;;;;;;21.8;92.1;98610;;;;
2022/06/26 21:47:45;;;;;;;2.7;7.5;;;;;;;21.3;94.5;98620;;;;
2022/06/26 21:58:45;;;;;;;2.7;7.5;;;;;;;21;95.5;98620;;;;
2022/06/26 22:09:45;;;;;;;2.7;5.4;;;;;;;20.7;96.2;98620;;;;
2022/06/26 22:19:45;;;;;;;2.7;5.4;;;;;;;20.4;98.6;98620;;;;
2022/06/26 22:29:45;;;;;;;2.7;5.4;;;;;;;20.1;100;98610;;;;
2022/06/26 22:40:45;;;;;;;4.3;7;;;;;;;19.8;100;98610;;;;
2022/06/26 22:50:45;;;;;;;4.3;7;;;;;;;19.6;100;98600;;;;
2022/06/26 23:01:45;;;;;;;4.3;7;;;;;;;19.3;100;98600;;;;
2022/06/26 23:11:45;;;;;;;5;9.5;;;;;;;19.1;100;98600;;;;
2022/06/26 23:21:46;;;;;;;5;9.5;;;;;;;19;100;98590;;;;
2022/06/26 23:31:45;;;;;;;5;9.5;;;;;;;18.9;100;98590;;;;
2022/06/26 23:41:45;;;;;;;4.7;7.8;;;;;;;18.9;100;98590;;;;
2022/06/26 23:52:45;;;;;;;4.7;7.8;;;;;;;18.8;100;98590;;;;
